»·PEaware :: N280DV KSBA-KBUR

N280DV :: KSBA-KBUR

FLIGHT INFORMATION

Flight Status: Arrived
Operator: Privately registered:
United States
More flights under this callsign
Pilot: Ben F. (13029)
Aircraft: CESSNA 172 SKYHAWK
(C172)
More flights by this aircraft type
Origin: KSBA Santa Barbara Mun
United States
Destination: KBUR Bob Hope-Burbank
United States
More flights between these airports :: More routes between these airports
Route: +
File this flight plan on PilotEdge
Remarks: cat8
Altitude:
(Current/Filed)
7,500ft
Speed:
(Current/Filed)
0kts
Departed: 18-Jan-19 08:49 PM
Arrived: 18-Jan-19 09:41 PM
Distance/Time
Traveled:
75nm/0:52
Distance/Time
To Go:
Arrived

Flight Plot

Page will automatically refresh every two minutes.


Map Options




Map Legend


Flown Route
Filed Route
Departure Airport
Arrival Airport
Navaid (VOR, NDB)
Fix

Horizontal Profiles

Position Reports

Time Latitude Longitude Heading Altitude Ground
Speed
18-Jan-19 20:42 34.431896 -119.837555 70 16ft 0kts
18-Jan-19 20:43 34.431896 -119.837555 70 16ft 0kts
18-Jan-19 20:44 34.431896 -119.837555 70 16ft 0kts
18-Jan-19 20:45 34.431489 -119.837334 186 16ft 8kts
18-Jan-19 20:46 34.430674 -119.839741 248 16ft 0kts
18-Jan-19 20:47 34.429712 -119.839997 163 16ft 28kts
18-Jan-19 20:48 34.408459 -119.834528 162 892ft 86kts
18-Jan-19 20:49 34.384269 -119.827452 166 1469ft 95kts
18-Jan-19 20:50 34.356961 -119.819396 166 1356ft 112kts
18-Jan-19 20:51 34.327336 -119.810734 160 1407ft 102kts
18-Jan-19 20:52 34.297897 -119.803304 163 1430ft 110kts
18-Jan-19 20:53 34.267261 -119.795040 166 1413ft 107kts
18-Jan-19 20:55 34.237688 -119.787027 168 1464ft 110kts
18-Jan-19 20:56 34.206583 -119.780064 165 1325ft 118kts
18-Jan-19 20:57 34.176328 -119.771853 164 1428ft 105kts
18-Jan-19 20:58 34.147225 -119.762776 164 1456ft 113kts
18-Jan-19 20:59 34.116057 -119.754801 166 1355ft 116kts
18-Jan-19 21:00 34.099554 -119.735754 48 1566ft 98kts
18-Jan-19 21:01 34.124119 -119.742986 328 1855ft 101kts
18-Jan-19 21:02 34.152011 -119.755532 355 2588ft 100kts
18-Jan-19 21:03 34.176727 -119.746481 26 3636ft 73kts
18-Jan-19 21:04 34.191784 -119.733229 40 4663ft 65kts
18-Jan-19 21:05 34.203937 -119.719919 39 5608ft 58kts
18-Jan-19 21:06 34.217426 -119.703823 41 6325ft 77kts
18-Jan-19 21:07 34.235704 -119.680982 41 6502ft 111kts
18-Jan-19 21:08 34.257843 -119.653168 42 6502ft 116kts
18-Jan-19 21:09 34.280120 -119.624938 42 6503ft 116kts
18-Jan-19 21:10 34.302430 -119.596535 42 6503ft 116kts
18-Jan-19 21:11 34.324718 -119.568151 42 6502ft 116kts
18-Jan-19 21:12 34.344700 -119.537535 62 6500ft 119kts
18-Jan-19 21:13 34.356427 -119.500004 63 6500ft 119kts
18-Jan-19 21:14 34.363838 -119.460474 75 6502ft 122kts
18-Jan-19 21:15 34.368367 -119.419393 75 6504ft 123kts
18-Jan-19 21:16 34.369403 -119.377281 95 6488ft 130kts
18-Jan-19 21:17 34.361600 -119.334347 96 6491ft 131kts
18-Jan-19 21:17 34.355173 -119.298165 96 6493ft 132kts
18-Jan-19 21:18 34.347535 -119.254328 96 6495ft 133kts
18-Jan-19 21:19 34.339851 -119.210321 97 6497ft 134kts
18-Jan-19 21:21 34.330045 -119.158446 97 6499ft 135kts
18-Jan-19 21:21 34.323014 -119.121351 97 6501ft 135kts
18-Jan-19 21:22 34.314553 -119.076914 97 6502ft 135kts
18-Jan-19 21:23 34.306032 -119.032376 97 6504ft 135kts
18-Jan-19 21:24 34.297416 -118.987826 97 6504ft 135kts
18-Jan-19 21:25 34.290157 -118.943482 91 6523ft 134kts
18-Jan-19 21:26 34.285600 -118.898678 87 6523ft 133kts
18-Jan-19 21:27 34.282984 -118.854026 87 6523ft 133kts
18-Jan-19 21:28 34.279543 -118.810353 89 6523ft 133kts
18-Jan-19 21:29 34.274802 -118.764605 94 6521ft 134kts
18-Jan-19 21:30 34.267512 -118.720220 94 6519ft 135kts
18-Jan-19 21:31 34.260161 -118.675735 94 6516ft 135kts
18-Jan-19 21:32 34.252478 -118.630137 96 6073ft 140kts
18-Jan-19 21:33 34.243692 -118.584681 100 4963ft 134kts
18-Jan-19 21:34 34.222657 -118.551426 103 3178ft 116kts
18-Jan-19 21:35 34.210815 -118.515707 105 2714ft 127kts
18-Jan-19 21:36 34.201424 -118.474307 99 2737ft 129kts
18-Jan-19 21:37 34.198154 -118.431001 88 2436ft 131kts
18-Jan-19 21:38 34.197782 -118.390598 91 1365ft 86kts
18-Jan-19 21:39 34.197814 -118.363901 88 799ft 68kts
18-Jan-19 21:40 34.198484 -118.355288 347 781ft 0kts
18-Jan-19 21:41 34.198655 -118.355351 329 781ft 9kts
18-Jan-19 21:42 34.199987 -118.359027 352 781ft 12kts
18-Jan-19 21:43 34.200332 -118.358846 78 781ft 0kts
18-Jan-19 21:44 34.200332 -118.358846 78 781ft 0kts
18-Jan-19 21:45 34.200332 -118.358846 78 781ft 0kts
18-Jan-19 21:46 34.200332 -118.358846 78 781ft 0kts
18-Jan-19 21:47 34.200332 -118.358846 78 781ft 0kts
18-Jan-19 21:48 34.200332 -118.358846 78 781ft 0kts
18-Jan-19 21:49 34.200332 -118.358846 78 781ft 0kts

Navigation Log

Ident Type
Flight plan parsing failed, navigation log unavailable